createdAt,value
2022-11-06T00:00:59.926Z,10.10
2022-11-06T00:03:28.327Z,9.40
2022-11-06T00:06:15.424Z,10.80
2022-11-06T00:08:43.486Z,11.30
2022-11-06T00:11:14.341Z,14.30
2022-11-06T00:13:43.141Z,12.90
2022-11-06T00:16:12.862Z,12.10
2022-11-06T00:18:42.134Z,10.70
2022-11-06T00:21:16.376Z,10.10
2022-11-06T00:23:46.419Z,10.30
2022-11-06T00:26:17.611Z,11.00
2022-11-06T00:28:46.299Z,11.80
2022-11-06T00:31:17.446Z,15.50
2022-11-06T00:33:46.336Z,13.40
2022-11-06T00:36:17.079Z,12.00
2022-11-06T00:38:45.754Z,12.30
2022-11-06T00:41:16.243Z,11.60
2022-11-06T00:43:49.899Z,10.30
2022-11-06T00:46:19.282Z,11.60
2022-11-06T00:48:48.285Z,10.90
2022-11-06T00:51:19.431Z,10.80
2022-11-06T00:53:48.630Z,12.90
2022-11-06T00:56:18.945Z,13.00
2022-11-06T00:58:48.276Z,12.20
2022-11-06T01:01:19.941Z,10.60
2022-11-06T01:03:56.013Z,9.00
2022-11-06T01:06:27.101Z,8.90
2022-11-06T01:08:56.717Z,11.20
2022-11-06T01:11:59.422Z,10.80
2022-11-06T01:14:26.133Z,13.60
2022-11-06T01:16:54.316Z,14.00
2022-11-06T01:19:23.201Z,12.60
2022-11-06T01:21:55.663Z,12.70
2022-11-06T01:24:28.224Z,12.80
2022-11-06T01:29:45.300Z,10.20
2022-11-06T01:32:14.086Z,11.60
2022-11-06T01:34:42.268Z,11.50
2022-11-06T01:37:14.230Z,12.00
2022-11-06T01:39:43.342Z,11.30
2022-11-06T01:42:16.198Z,14.40
2022-11-06T01:44:44.219Z,12.90
2022-11-06T01:47:27.824Z,15.10
2022-11-06T01:50:05.679Z,13.30
2022-11-06T01:52:35.126Z,16.70
2022-11-06T01:55:16.297Z,14.40
2022-11-06T01:57:44.580Z,13.90
2022-11-06T02:00:13.417Z,14.20
2022-11-06T02:02:42.076Z,14.90
2022-11-06T02:05:10.962Z,14.60
2022-11-06T02:07:41.164Z,14.60
2022-11-06T02:10:10.002Z,14.20
2022-11-06T02:13:16.018Z,15.20
2022-11-06T02:15:46.956Z,15.10
2022-11-06T02:18:20.658Z,12.60
2022-11-06T02:21:13.610Z,15.90
2022-11-06T02:24:15.776Z,15.60
2022-11-06T02:27:02.489Z,12.90
2022-11-06T02:29:41.211Z,12.20
2022-11-06T02:32:14.197Z,16.10
2022-11-06T02:34:44.792Z,14.30
2022-11-06T02:37:18.043Z,16.60
2022-11-06T02:39:48.583Z,14.50
2022-11-06T02:42:20.123Z,17.40
2022-11-06T02:44:52.821Z,17.70
2022-11-06T02:47:25.158Z,16.70
2022-11-06T02:50:04.076Z,16.70
2022-11-06T02:52:35.530Z,16.00
2022-11-06T02:55:24.049Z,18.00
2022-11-06T02:58:01.268Z,15.70
2022-11-06T03:00:30.602Z,17.50
2022-11-06T03:02:58.821Z,17.40
2022-11-06T03:05:33.684Z,18.00
2022-11-06T03:08:21.920Z,16.30
2022-11-06T03:10:58.236Z,19.60
2022-11-06T03:13:52.062Z,18.20
2022-11-06T03:16:32.233Z,20.00
2022-11-06T03:19:12.787Z,18.30
2022-11-06T03:21:57.448Z,18.10
2022-11-06T03:24:38.314Z,18.80
2022-11-06T03:27:12.891Z,16.70
2022-11-06T03:29:46.747Z,18.10
2022-11-06T03:32:28.617Z,18.80
2022-11-06T03:35:24.361Z,14.70
2022-11-06T03:37:59.707Z,14.30
2022-11-06T03:40:32.179Z,15.80
2022-11-06T03:43:04.867Z,19.40
2022-11-06T03:45:35.086Z,17.40
2022-11-06T03:48:13.059Z,16.40
2022-11-06T03:50:51.303Z,15.60
2022-11-06T03:53:32.066Z,15.60
2022-11-06T03:56:10.484Z,15.80
2022-11-06T03:58:42.924Z,16.10
2022-11-06T04:01:13.833Z,15.30
2022-11-06T04:03:44.323Z,16.60
2022-11-06T04:06:22.650Z,15.00
2022-11-06T04:09:13.010Z,15.60
2022-11-06T04:12:17.908Z,15.50
2022-11-06T04:14:51.161Z,13.60
2022-11-06T04:17:22.649Z,14.30
2022-11-06T04:19:55.053Z,14.70
2022-11-06T04:22:48.362Z,15.50
2022-11-06T04:26:13.691Z,14.50
2022-11-06T04:29:02.932Z,15.00
2022-11-06T04:31:37.062Z,14.00
2022-11-06T04:34:10.000Z,13.20
2022-11-06T04:36:49.683Z,15.00
2022-11-06T04:39:40.176Z,15.00
2022-11-06T04:42:29.761Z,14.80
2022-11-06T04:45:03.870Z,16.70
2022-11-06T04:47:33.074Z,15.30
2022-11-06T04:50:03.354Z,13.00
2022-11-06T04:52:32.696Z,14.20
2022-11-06T04:55:00.978Z,14.60
2022-11-06T04:57:29.145Z,13.80
2022-11-06T04:59:57.322Z,13.40
2022-11-06T05:02:25.467Z,14.20
2022-11-06T05:04:53.770Z,12.20
2022-11-06T05:07:21.969Z,14.40
2022-11-06T05:09:50.130Z,12.80
2022-11-06T05:12:18.307Z,12.10
2022-11-06T05:14:46.360Z,9.80
2022-11-06T05:17:14.433Z,13.10
2022-11-06T05:19:42.503Z,12.30
2022-11-06T05:22:28.977Z,12.50
2022-11-06T05:24:57.088Z,12.90
2022-11-06T05:27:25.028Z,11.50
2022-11-06T05:29:54.762Z,13.10
2022-11-06T05:32:22.941Z,15.00
2022-11-06T05:34:50.950Z,16.40
2022-11-06T05:37:18.982Z,15.50
2022-11-06T05:39:47.901Z,16.30
2022-11-06T05:42:15.896Z,15.30
2022-11-06T05:44:43.930Z,15.30
2022-11-06T05:47:11.983Z,15.20
2022-11-06T05:49:40.164Z,15.00
2022-11-06T05:52:08.182Z,15.20
2022-11-06T05:54:36.820Z,12.70
2022-11-06T05:57:04.889Z,11.40
2022-11-06T05:59:32.857Z,17.70
2022-11-06T06:02:01.112Z,18.80
2022-11-06T06:04:29.314Z,14.60
2022-11-06T06:06:57.690Z,13.10
2022-11-06T06:09:25.761Z,15.90
2022-11-06T06:11:54.452Z,13.90
2022-11-06T06:14:22.614Z,14.30
2022-11-06T06:16:50.742Z,12.00
2022-11-06T06:19:18.971Z,13.20
2022-11-06T06:21:47.169Z,13.80
2022-11-06T06:24:15.579Z,18.70
2022-11-06T06:26:43.694Z,17.80
2022-11-06T06:29:11.867Z,18.20
2022-11-06T06:31:39.836Z,19.20
2022-11-06T06:34:08.530Z,17.30
2022-11-06T06:36:36.594Z,15.90
2022-11-06T06:39:05.807Z,19.50
2022-11-06T06:41:33.976Z,17.70
2022-11-06T06:44:02.247Z,17.20
2022-11-06T06:46:30.282Z,17.60
2022-11-06T06:48:58.325Z,18.20
2022-11-06T06:51:26.570Z,18.00
2022-11-06T06:53:54.960Z,16.30
2022-11-06T06:56:23.066Z,18.60
2022-11-06T06:58:54.705Z,20.30
2022-11-06T07:01:23.700Z,18.30
2022-11-06T07:03:51.948Z,17.20
2022-11-06T07:06:20.228Z,17.30
2022-11-06T07:08:48.534Z,17.30
2022-11-06T07:11:18.423Z,16.50
2022-11-06T07:13:46.591Z,18.80
2022-11-06T07:16:14.926Z,18.40
2022-11-06T07:18:43.243Z,16.50
2022-11-06T07:21:13.308Z,17.50
2022-11-06T07:23:41.537Z,17.60
2022-11-06T07:26:09.929Z,18.40
2022-11-06T07:28:38.304Z,17.90
2022-11-06T07:31:08.175Z,18.50
2022-11-06T07:33:36.292Z,17.60
2022-11-06T07:36:13.284Z,18.40
2022-11-06T07:38:43.093Z,18.90
2022-11-06T07:41:14.401Z,18.50
2022-11-06T07:43:43.323Z,18.60
2022-11-06T07:46:13.560Z,18.10
2022-11-06T07:48:41.630Z,18.10
2022-11-06T07:51:11.127Z,18.00
2022-11-06T07:53:39.822Z,17.90
2022-11-06T07:56:08.910Z,18.10
2022-11-06T07:58:37.487Z,19.30
2022-11-06T08:01:06.313Z,18.70
2022-11-06T08:03:36.968Z,18.00
2022-11-06T08:06:05.437Z,17.80
2022-11-06T08:08:33.974Z,20.00
2022-11-06T08:11:07.170Z,18.10
2022-11-06T08:13:36.201Z,18.20
2022-11-06T08:18:36.910Z,19.00
2022-11-06T08:21:07.265Z,19.10
2022-11-06T08:23:36.158Z,20.00
2022-11-06T08:26:06.221Z,19.40
2022-11-06T08:28:34.748Z,19.00
2022-11-06T08:31:05.659Z,19.90
2022-11-06T08:33:34.866Z,21.30
2022-11-06T08:36:05.323Z,20.60
2022-11-06T08:38:33.999Z,21.00
2022-11-06T08:41:11.339Z,21.00
2022-11-06T08:43:39.543Z,19.50
2022-11-06T08:46:09.977Z,19.60
2022-11-06T08:48:38.312Z,19.80
2022-11-06T08:51:06.833Z,17.60
2022-11-06T08:53:35.291Z,19.50
2022-11-06T08:58:32.473Z,18.20
2022-11-06T09:01:00.713Z,19.10
2022-11-06T09:03:28.975Z,20.90
2022-11-06T09:05:57.038Z,20.20
2022-11-06T09:08:25.386Z,20.00
2022-11-06T09:13:27.388Z,19.60
2022-11-06T09:15:55.642Z,18.40
2022-11-06T09:18:23.821Z,17.60
2022-11-06T09:20:59.151Z,19.10
2022-11-06T09:23:27.337Z,18.10
2022-11-06T09:28:25.013Z,20.60
2022-11-06T09:30:54.673Z,20.20
2022-11-06T09:33:22.796Z,18.70
2022-11-06T09:35:50.866Z,20.10
2022-11-06T09:38:19.287Z,19.70
2022-11-06T09:40:59.232Z,21.00
2022-11-06T09:46:40.577Z,9.70
2022-11-06T09:49:37.961Z,9.60
2022-11-06T09:52:38.227Z,8.90
2022-11-06T09:55:13.217Z,9.30
2022-11-06T09:57:57.983Z,8.80
2022-11-06T10:00:26.478Z,9.10
2022-11-06T10:05:33.392Z,9.90
2022-11-06T10:08:13.752Z,9.10
2022-11-06T10:10:57.149Z,10.10
2022-11-06T10:14:03.221Z,10.40
2022-11-06T10:16:56.386Z,9.90
2022-11-06T10:19:48.359Z,10.50
2022-11-06T10:22:17.888Z,10.60
2022-11-06T10:25:02.243Z,11.00
2022-11-06T10:27:39.435Z,10.70
2022-11-06T10:30:15.886Z,10.60
2022-11-06T10:32:59.336Z,10.90
2022-11-06T10:35:35.413Z,10.10
2022-11-06T10:38:16.182Z,10.20
2022-11-06T10:40:49.360Z,11.10
2022-11-06T10:43:42.927Z,10.80
2022-11-06T10:46:22.517Z,10.80
2022-11-06T10:49:01.558Z,11.00
2022-11-06T10:51:57.327Z,11.30
2022-11-06T10:54:45.368Z,10.90
2022-11-06T10:57:18.655Z,11.50
2022-11-06T10:59:48.928Z,10.80
2022-11-06T11:02:40.883Z,10.60
2022-11-06T11:05:15.967Z,11.80
2022-11-06T11:07:46.199Z,10.80
2022-11-06T11:10:23.142Z,11.70
2022-11-06T11:12:53.684Z,12.40
2022-11-06T11:15:24.721Z,12.70
2022-11-06T11:18:34.368Z,11.00
2022-11-06T11:21:28.055Z,9.90
2022-11-06T11:24:11.168Z,12.20
2022-11-06T11:26:48.040Z,11.80
2022-11-06T11:29:22.564Z,10.10
2022-11-06T11:31:54.738Z,10.70
2022-11-06T11:34:30.394Z,10.10
2022-11-06T11:37:01.684Z,9.40
2022-11-06T11:39:35.545Z,11.50
2022-11-06T11:42:24.302Z,12.00
2022-11-06T11:45:12.845Z,10.90
2022-11-06T11:50:16.671Z,13.00
2022-11-06T11:52:47.102Z,11.50
2022-11-06T11:55:27.506Z,12.50
2022-11-06T11:57:59.374Z,11.90
2022-11-06T12:00:28.640Z,11.90
2022-11-06T12:03:02.680Z,12.30
2022-11-06T12:05:37.990Z,11.30
2022-11-06T12:08:12.969Z,12.20
2022-11-06T12:10:43.637Z,12.20
2022-11-06T12:13:19.144Z,11.90
2022-11-06T12:15:54.840Z,12.00
2022-11-06T12:18:36.459Z,12.90
2022-11-06T12:21:13.925Z,11.30
2022-11-06T12:23:57.860Z,12.20
2022-11-06T12:26:31.976Z,13.40
2022-11-06T12:29:27.319Z,13.00
2022-11-06T12:32:04.699Z,11.80
2022-11-06T12:34:41.075Z,10.60
2022-11-06T12:37:21.520Z,11.40
2022-11-06T12:40:25.182Z,9.90
2022-11-06T12:43:27.290Z,11.60
2022-11-06T12:46:15.220Z,11.90
2022-11-06T12:48:50.172Z,10.90
2022-11-06T12:51:30.397Z,10.40
2022-11-06T12:54:07.773Z,9.80
2022-11-06T12:57:00.964Z,9.60
2022-11-06T12:59:55.355Z,11.90
2022-11-06T13:02:37.583Z,11.70
2022-11-06T13:05:23.344Z,11.70
2022-11-06T13:08:10.255Z,11.60
2022-11-06T13:10:45.145Z,11.00
2022-11-06T13:13:49.413Z,12.30
2022-11-06T13:16:39.090Z,10.00
2022-11-06T13:19:13.420Z,12.30
2022-11-06T13:22:05.885Z,12.40
2022-11-06T13:24:45.795Z,10.60
2022-11-06T13:27:31.215Z,9.50
2022-11-06T13:30:13.449Z,11.70
2022-11-06T13:32:49.717Z,11.20
2022-11-06T13:35:22.355Z,10.20
2022-11-06T13:37:51.845Z,10.10
2022-11-06T13:40:48.513Z,10.60
2022-11-06T13:43:21.875Z,11.40
2022-11-06T13:45:56.086Z,10.90
2022-11-06T13:48:39.308Z,12.30
2022-11-06T13:51:25.410Z,11.40
2022-11-06T13:54:12.227Z,11.30
2022-11-06T13:57:25.453Z,12.50
2022-11-06T14:00:39.810Z,12.10
2022-11-06T14:03:10.546Z,11.00
2022-11-06T14:05:57.465Z,10.60
2022-11-06T14:08:33.623Z,11.30
2022-11-06T14:11:14.451Z,10.50
2022-11-06T14:13:57.807Z,9.20
2022-11-06T14:16:32.032Z,11.30
2022-11-06T14:19:05.447Z,11.60
2022-11-06T14:21:36.200Z,11.60
2022-11-06T14:24:25.950Z,11.10
2022-11-06T14:26:54.119Z,11.00
2022-11-06T14:29:28.078Z,11.80
2022-11-06T14:32:19.711Z,10.70
2022-11-06T14:34:48.343Z,10.90
2022-11-06T14:37:19.398Z,10.80
2022-11-06T14:39:56.368Z,10.50
2022-11-06T14:42:26.948Z,10.90
2022-11-06T14:45:02.808Z,12.00
2022-11-06T14:47:38.887Z,11.40
2022-11-06T14:50:26.243Z,11.60
2022-11-06T14:53:23.903Z,10.90
2022-11-06T14:56:04.461Z,11.40
2022-11-06T14:58:39.097Z,11.70
2022-11-06T15:01:10.217Z,13.50
2022-11-06T15:03:43.827Z,13.90
2022-11-06T15:06:18.078Z,13.60
2022-11-06T15:08:46.931Z,13.30
2022-11-06T15:11:30.052Z,14.40
2022-11-06T15:14:04.871Z,13.90
2022-11-06T15:16:40.740Z,12.80
2022-11-06T15:19:15.161Z,15.00
2022-11-06T15:21:57.842Z,14.30
2022-11-06T15:24:38.518Z,12.70
2022-11-06T15:27:22.262Z,13.30
2022-11-06T15:29:54.806Z,12.40
2022-11-06T15:32:27.196Z,13.00
2022-11-06T15:35:15.868Z,13.00
2022-11-06T15:37:47.635Z,13.10
2022-11-06T15:40:31.606Z,13.10
2022-11-06T15:43:34.052Z,12.50
2022-11-06T15:46:12.172Z,13.30
2022-11-06T15:48:40.340Z,11.30
2022-11-06T15:51:24.302Z,11.90
2022-11-06T15:53:53.430Z,10.40
2022-11-06T15:56:28.414Z,8.90
2022-11-06T15:59:17.281Z,12.50
2022-11-06T16:01:49.679Z,11.80
2022-11-06T16:04:24.645Z,12.30
2022-11-06T16:06:55.102Z,12.20
2022-11-06T16:09:26.364Z,12.20
2022-11-06T16:11:55.462Z,13.60
2022-11-06T16:14:23.992Z,12.30
2022-11-06T16:16:54.666Z,12.00
2022-11-06T16:19:34.003Z,11.70
2022-11-06T16:22:04.229Z,12.30
2022-11-06T16:24:40.100Z,14.30
2022-11-06T16:27:09.770Z,14.90
2022-11-06T16:29:38.682Z,16.60
2022-11-06T16:32:16.593Z,15.90
2022-11-06T16:34:47.081Z,14.80
2022-11-06T16:37:18.275Z,12.90
2022-11-06T16:39:56.101Z,10.30
2022-11-06T16:42:25.673Z,11.30
2022-11-06T16:44:59.736Z,11.60
2022-11-06T16:47:28.479Z,11.80
2022-11-06T16:49:58.689Z,12.80
2022-11-06T16:52:35.894Z,12.40
2022-11-06T16:55:17.135Z,11.30
2022-11-06T16:57:58.336Z,12.50
2022-11-06T17:00:31.224Z,11.40
2022-11-06T17:03:23.676Z,11.90
2022-11-06T17:05:56.036Z,11.90
2022-11-06T17:08:30.256Z,12.50
2022-11-06T17:11:14.205Z,11.90
2022-11-06T17:13:45.860Z,11.20
2022-11-06T17:16:16.977Z,11.60
2022-11-06T17:18:45.480Z,10.80
2022-11-06T17:23:45.895Z,10.20
2022-11-06T17:26:22.569Z,10.20
2022-11-06T17:28:51.708Z,9.90
2022-11-06T17:31:21.104Z,10.50
2022-11-06T17:33:49.149Z,10.90
2022-11-06T17:36:25.038Z,10.90
2022-11-06T17:38:54.954Z,11.00
2022-11-06T17:41:30.080Z,11.70
2022-11-06T17:44:12.902Z,9.20
2022-11-06T17:46:46.356Z,8.20
2022-11-06T17:49:18.171Z,9.70
2022-11-06T17:51:50.538Z,10.00
2022-11-06T17:54:20.882Z,12.30
2022-11-06T17:56:51.608Z,11.00
2022-11-06T17:59:20.800Z,11.80
2022-11-06T18:01:50.686Z,14.20
2022-11-06T18:04:20.930Z,14.20
2022-11-06T18:06:52.313Z,14.00
2022-11-06T18:09:21.990Z,13.80
2022-11-06T18:11:52.347Z,13.60
2022-11-06T18:14:22.028Z,14.10
2022-11-06T18:16:50.615Z,12.70
2022-11-06T18:19:22.682Z,13.30
2022-11-06T18:21:51.788Z,13.80
2022-11-06T18:24:19.956Z,15.50
2022-11-06T18:26:48.061Z,15.60
2022-11-06T18:29:16.498Z,15.30
2022-11-06T18:31:45.295Z,17.20
2022-11-06T18:34:20.283Z,14.50
2022-11-06T18:36:50.651Z,16.20
2022-11-06T18:39:19.755Z,14.80
2022-11-06T18:41:47.844Z,13.50
2022-11-06T18:44:17.941Z,14.70
2022-11-06T18:46:47.144Z,14.60
2022-11-06T18:49:15.415Z,12.50
2022-11-06T18:51:43.926Z,11.30
2022-11-06T18:54:12.895Z,10.90
2022-11-06T18:56:41.819Z,12.90
2022-11-06T18:59:14.933Z,13.50
2022-11-06T19:01:43.356Z,11.60
2022-11-06T19:04:11.742Z,11.30
2022-11-06T19:06:40.408Z,13.10
2022-11-06T19:09:09.987Z,10.50
2022-11-06T19:11:38.716Z,12.50
2022-11-06T19:14:06.947Z,9.90
2022-11-06T19:16:35.477Z,9.20
2022-11-06T19:19:05.979Z,10.30
2022-11-06T19:21:35.818Z,12.40
2022-11-06T19:24:05.704Z,12.30
2022-11-06T19:26:37.184Z,10.10
2022-11-06T19:29:08.325Z,8.40
2022-11-06T19:31:37.530Z,16.50
2022-11-06T19:34:07.991Z,10.30
2022-11-06T19:36:36.234Z,9.60
2022-11-06T19:39:05.639Z,11.30
2022-11-06T19:41:34.040Z,12.90
2022-11-06T19:44:02.239Z,12.40
2022-11-06T19:46:35.709Z,11.80
2022-11-06T19:49:06.396Z,10.80
2022-11-06T19:51:35.284Z,10.20
2022-11-06T19:54:05.796Z,13.80
2022-11-06T19:56:34.060Z,13.70
2022-11-06T19:59:02.452Z,11.20
2022-11-06T20:01:30.676Z,10.70
2022-11-06T20:03:58.744Z,11.10
2022-11-06T20:06:27.704Z,10.50
2022-11-06T20:08:55.804Z,13.20
2022-11-06T20:11:23.812Z,12.20
2022-11-06T20:13:52.314Z,13.40
2022-11-06T20:16:22.278Z,10.40
2022-11-06T20:18:52.751Z,10.20
2022-11-06T20:21:21.425Z,9.90
2022-11-06T20:23:49.855Z,9.70
2022-11-06T20:26:18.743Z,10.00
2022-11-06T20:28:48.553Z,12.50
2022-11-06T20:31:19.478Z,10.50
2022-11-06T20:33:48.238Z,10.10
2022-11-06T20:36:25.493Z,10.00
2022-11-06T20:38:55.794Z,10.60
2022-11-06T20:41:25.095Z,9.10
2022-11-06T20:46:25.336Z,12.00
2022-11-06T20:51:24.547Z,11.10
2022-11-06T20:53:53.592Z,10.90
2022-11-06T20:56:25.435Z,10.50
2022-11-06T20:58:55.531Z,11.60
2022-11-06T21:01:27.180Z,10.10
2022-11-06T21:03:56.987Z,12.10
2022-11-06T21:06:26.619Z,9.90
2022-11-06T21:08:54.731Z,10.60
2022-11-06T21:11:26.128Z,11.10
2022-11-06T21:13:55.320Z,10.30
2022-11-06T21:16:28.320Z,9.60
2022-11-06T21:18:57.305Z,10.50
2022-11-06T21:21:29.577Z,10.70
2022-11-06T21:24:02.001Z,9.60
2022-11-06T21:26:34.115Z,10.00
2022-11-06T21:29:07.617Z,8.70
2022-11-06T21:31:35.690Z,11.00
2022-11-06T21:34:04.942Z,10.90
2022-11-06T21:36:37.562Z,10.30
2022-11-06T21:39:10.746Z,9.00
2022-11-06T21:41:39.240Z,8.30
2022-11-06T21:44:08.237Z,9.10
2022-11-06T21:46:39.904Z,8.60
2022-11-06T21:49:10.928Z,9.30
2022-11-06T21:51:39.408Z,9.60
2022-11-06T21:54:26.257Z,9.00
2022-11-06T21:56:54.920Z,10.00
2022-11-06T21:59:28.736Z,7.90
2022-11-06T22:01:57.498Z,10.10
2022-11-06T22:04:25.808Z,9.50
2022-11-06T22:06:53.950Z,9.20
2022-11-06T22:09:25.269Z,9.70
2022-11-06T22:11:53.867Z,7.50
2022-11-06T22:14:22.024Z,7.60
2022-11-06T22:16:50.598Z,9.20
2022-11-06T22:19:18.663Z,8.90
2022-11-06T22:21:47.148Z,8.40
2022-11-06T22:24:15.973Z,11.00
2022-11-06T22:26:44.352Z,7.60
2022-11-06T22:29:14.233Z,8.60
2022-11-06T22:31:42.566Z,9.40
2022-11-06T22:34:11.740Z,9.30
2022-11-06T22:36:40.950Z,9.00
2022-11-06T22:41:38.449Z,8.50
2022-11-06T22:44:07.163Z,7.40
2022-11-06T22:46:35.856Z,7.30
2022-11-06T22:49:04.852Z,8.50
2022-11-06T22:51:34.202Z,9.10
2022-11-06T22:54:03.341Z,8.70
2022-11-06T22:56:33.061Z,10.50
2022-11-06T22:59:04.597Z,8.70
2022-11-06T23:01:36.075Z,11.00
2022-11-06T23:04:10.348Z,10.60
2022-11-06T23:06:38.355Z,9.50
2022-11-06T23:09:07.243Z,10.20
2022-11-06T23:11:35.512Z,7.60
2022-11-06T23:14:08.598Z,8.80
2022-11-06T23:16:56.421Z,9.90
2022-11-06T23:19:25.742Z,9.30
2022-11-06T23:22:14.298Z,9.60
2022-11-06T23:24:43.079Z,11.00
2022-11-06T23:27:11.910Z,10.40
2022-11-06T23:29:40.256Z,10.10
2022-11-06T23:32:08.635Z,9.40
2022-11-06T23:34:36.702Z,11.20
2022-11-06T23:37:05.189Z,10.20
2022-11-06T23:39:33.260Z,11.10
2022-11-06T23:42:01.280Z,10.30
2022-11-06T23:44:48.143Z,9.70
2022-11-06T23:47:16.419Z,9.50
2022-11-06T23:49:44.543Z,8.60
2022-11-06T23:52:12.659Z,8.30
2022-11-06T23:54:40.738Z,9.40
2022-11-06T23:57:09.575Z,8.80
2022-11-06T23:59:38.009Z,9.00
